Terminal Aerodrome Forecast
Issued by NWS Upton, NY

Home | Current Version | Previous Version | Text Only | Print | Product List | Glossary On
Versions: 1 2 3 4 5 6 7 8 9 10 11 12 13 14 15 16 17 18 19 20 21 22 23 24 25 26 27 28 29 30
000
FTUS41 KOKX 110500
TAFLGA
TAF
KLGA 110535Z 1106/1206 VRB03KT P6SM SCT120 BKN250
     FM111000 05008KT P6SM FEW050
     FM112000 VRB05KT P6SM FEW050
     FM112200 15007KT P6SM FEW050
     FM120100 VRB04KT P6SM SKC=

USA.gov is the U.S. government's official web portal to all federal, state and local government web resources and services.